createdAt,value
2022-09-28T00:04:48.748Z,11.4
2022-09-28T00:18:48.757Z,11.2
2022-09-28T00:32:48.763Z,11.1
2022-09-28T00:46:48.743Z,10.9
2022-09-28T01:00:48.842Z,10.7
2022-09-28T01:14:48.799Z,10.6
2022-09-28T01:28:48.801Z,10.8
2022-09-28T01:42:48.810Z,11.0
2022-09-28T01:56:48.807Z,11.0
2022-09-28T02:10:48.920Z,10.8
2022-09-28T02:24:48.955Z,10.8
2022-09-28T02:38:49.060Z,11.2
2022-09-28T02:52:48.982Z,11.4
2022-09-28T03:06:49.929Z,11.7
2022-09-28T03:20:48.954Z,11.6
2022-09-28T03:34:49.003Z,11.7
2022-09-28T03:48:48.998Z,11.7
2022-09-28T04:02:49.007Z,11.7
2022-09-28T04:16:49.041Z,11.7
2022-09-28T04:30:49.029Z,11.8
2022-09-28T04:44:49.093Z,11.5
2022-09-28T04:58:52.540Z,11.4
2022-09-28T05:13:49.089Z,11.5
2022-09-28T05:28:49.090Z,11.6
2022-09-28T05:43:49.088Z,11.7
2022-09-28T05:58:49.094Z,12.0
2022-09-28T06:13:49.107Z,12.1
2022-09-28T06:42:49.146Z,12.4
2022-09-28T06:57:49.140Z,12.8
2022-09-28T07:12:49.286Z,13.2
2022-09-28T07:27:49.715Z,13.4
2022-09-28T07:42:49.745Z,13.8
2022-09-28T07:57:49.752Z,14.1
2022-09-28T08:12:49.776Z,14.6
2022-09-28T08:27:49.757Z,15.3
2022-09-28T08:42:49.807Z,16.1
2022-09-28T08:57:50.172Z,16.8
2022-09-28T09:12:50.254Z,16.6
2022-09-28T09:27:50.201Z,16.8
2022-09-28T09:42:50.352Z,16.9
2022-09-28T09:57:50.374Z,17.1
2022-09-28T10:12:50.359Z,17.4
2022-09-28T10:27:50.473Z,18.2
2022-09-28T10:42:50.467Z,18.7
2022-09-28T10:50:23.719Z,19.0
2022-09-28T11:05:21.832Z,18.9
2022-09-28T11:20:26.959Z,19.2
2022-09-28T11:36:21.967Z,20.4
2022-09-28T11:51:21.992Z,18.9
2022-09-28T12:06:21.924Z,17.9
2022-09-28T12:21:22.005Z,18.2
2022-09-28T12:37:22.086Z,19.7
2022-09-28T12:52:22.211Z,20.5
2022-09-28T13:07:22.174Z,19.6
2022-09-28T13:22:22.213Z,18.9
2022-09-28T13:37:22.224Z,18.5
2022-09-28T13:52:22.383Z,18.6
2022-09-28T14:08:22.482Z,18.5
2022-09-28T14:23:22.956Z,17.7
2022-09-28T14:38:23.022Z,17.9
2022-09-28T14:53:23.021Z,17.4
2022-09-28T15:08:23.035Z,17.2
2022-09-28T15:23:23.053Z,17.0
2022-09-28T15:38:23.045Z,16.9
2022-09-28T15:53:23.090Z,16.4
2022-09-28T16:08:23.270Z,16.2
2022-09-28T16:23:23.970Z,16.0
2022-09-28T16:38:23.123Z,15.7
2022-09-28T16:53:23.136Z,15.4
2022-09-28T17:08:23.169Z,15.6
2022-09-28T17:23:23.217Z,15.4
2022-09-28T17:37:24.172Z,15.5
2022-09-28T17:51:23.375Z,15.3
2022-09-28T18:05:23.266Z,15.0
2022-09-28T18:19:26.558Z,14.1
2022-09-28T18:33:24.436Z,13.9
2022-09-28T18:47:23.345Z,14.5
2022-09-28T19:01:31.026Z,14.4
2022-09-28T19:15:23.526Z,14.0
2022-09-28T19:29:23.481Z,13.7
2022-09-28T19:35:51.372Z,13.7
2022-09-28T19:49:51.464Z,13.6
2022-09-28T20:03:51.707Z,13.3
2022-09-28T20:17:51.377Z,13.2
2022-09-28T20:31:52.405Z,13.4
2022-09-28T20:45:52.785Z,13.6
2022-09-28T20:59:54.638Z,13.5
2022-09-28T21:13:53.193Z,13.4
2022-09-28T21:27:52.050Z,13.3
2022-09-28T21:41:52.080Z,13.1
2022-09-28T21:55:52.162Z,12.8
2022-09-28T22:09:53.579Z,12.4
2022-09-28T22:23:52.140Z,12.2
2022-09-28T22:37:52.192Z,13.1
2022-09-28T22:51:52.188Z,12.6
2022-09-28T23:05:52.187Z,12.6
2022-09-28T23:19:52.210Z,13.1
2022-09-28T23:33:52.268Z,13.5
2022-09-28T23:47:52.293Z,13.4
